Terminal Aerodrome Forecast
Issued by NWS Wilmington, OH

Current Version | Previous Version | Text Only | Print | Product List | Glossary On
Versions: 1 2 3 4 5 6 7 8 9 10 11 12 13 14 15 16 17 18 19
000
FTUS41 KILN 251200 AAA
TAFCMH
TAF AMD
KCMH 251205Z 2512/2612 09008G18KT P6SM VCSH OVC070
     FM251700 08011G20KT P6SM -SHRA SCT025 OVC040
     FM252000 07011G20KT 4SM -SHRA BKN025 OVC040
     FM260000 02012KT P6SM VCSH SCT008 OVC035
     FM260600 01012KT P6SM SCT035=

USA.gov is the U.S. government's official web portal to all federal, state and local government web resources and services.